Time;durP1;ratioP1;P1;durP2;ratioP2;P2;SDS_P1;SDS_P2;PMS_P1;PMS_P2;Temp;Humidity;BMP_temperature;BMP_pressure;BME280_temperature;BME280_humidity;BME280_pressure;Samples;Min_cycle;Max_cycle;Signal;HPM_P1;HPM_P2
2022/10/04 05:41:35;;;;;;;;;36.00;32.25;;;;;9.87;70.51;102005.38;2362078;28;69489;-85
2022/10/04 05:42:46;;;;;;;;;34.25;32.25;;;;;9.89;70.44;102007.97;2379698;28;45337;-85
2022/10/04 05:43:56;;;;;;;;;31.00;25.75;;;;;9.90;70.37;102007.09;2376701;28;45625;-85
2022/10/04 05:45:12;;;;;;;;;37.25;32.25;;;;;9.92;70.57;102005.31;2373896;28;47601;-85
2022/10/04 05:46:29;;;;;;;;;35.50;30.50;;;;;9.95;70.79;102009.66;2380591;28;44838;-85
2022/10/04 05:47:41;;;;;;;;;38.00;32.25;;;;;9.97;70.72;102008.78;2383502;28;48390;-86
2022/10/04 05:49:13;;;;;;;;;37.00;31.75;;;;;9.99;70.95;102006.13;2379976;28;45441;-84
2022/10/04 05:50:40;;;;;;;;;34.00;30.50;;;;;10.02;70.72;102001.69;2384734;28;45476;-86
2022/10/04 05:51:59;;;;;;;;;40.75;33.75;;;;;10.05;70.93;102000.78;2383284;28;44732;-86
2022/10/04 05:53:18;;;;;;;;;39.75;33.50;;;;;10.08;70.94;102006.03;2377510;28;48021;-86
2022/10/04 05:54:34;;;;;;;;;42.50;36.00;;;;;10.10;70.93;102009.50;2377983;28;44599;-86
2022/10/04 05:56:10;;;;;;;;;38.75;33.00;;;;;10.14;71.14;102012.97;2383900;28;46752;-86
2022/10/04 05:57:58;;;;;;;;;38.50;32.75;;;;;10.18;71.01;102008.53;2393589;28;44730;-86
2022/10/04 05:59:35;;;;;;;;;40.00;34.75;;;;;10.22;71.28;102012.91;2390647;28;47302;-85
2022/10/04 06:01:07;;;;;;;;;38.75;34.25;;;;;10.24;71.25;102011.13;2384142;28;45432;-85
2022/10/04 06:02:46;;;;;;;;;40.50;34.50;;;;;10.27;71.56;102003.22;2384077;28;46484;-85
2022/10/04 06:04:02;;;;;;;;;11.75;8.00;;;;;10.32;71.55;102005.78;2384349;28;45356;-85
2022/10/04 06:05:41;;;;;;;;;33.00;29.25;;;;;10.35;71.58;102003.97;2382809;28;47271;-85
2022/10/04 06:07:03;;;;;;;;;39.00;34.00;;;;;10.41;71.62;102010.06;2377549;28;45242;-85
2022/10/04 06:08:16;;;;;;;;;40.00;33.00;;;;;10.45;71.47;102004.72;2384199;28;45483;-85
2022/10/04 06:09:48;;;;;;;;;39.25;30.75;;;;;10.50;71.73;102011.69;2384232;28;45232;-86
2022/10/04 06:11:12;;;;;;;;;33.25;29.50;;;;;10.55;71.99;102008.16;2387362;28;47419;-85
2022/10/04 06:12:42;;;;;;;;;40.00;32.00;;;;;10.58;71.73;102010.75;2388162;28;45364;-86
2022/10/04 06:14:14;;;;;;;;;35.25;30.75;;;;;10.63;71.86;102002.81;2374032;28;47606;-86
2022/10/04 06:15:40;;;;;;;;;37.00;29.00;;;;;10.67;71.83;101999.22;2378638;28;45416;-85
2022/10/04 06:17:20;;;;;;;;;32.75;29.50;;;;;10.72;71.97;102004.44;2372503;28;47352;-86
2022/10/04 06:18:57;;;;;;;;;33.50;31.50;;;;;10.76;71.96;102003.53;2381289;28;45249;-86
2022/10/04 06:20:26;;;;;;;;;36.50;29.00;;;;;10.81;72.03;102011.34;2383919;28;46696;-87
2022/10/04 06:21:46;;;;;;;;;29.50;25.00;;;;;10.84;72.04;102011.28;2390271;28;45339;-86
2022/10/04 06:23:00;;;;;;;;;34.50;27.50;;;;;10.87;72.11;102011.25;2391664;28;45692;-86
2022/10/04 06:24:17;;;;;;;;;37.25;29.75;;;;;10.91;72.10;102009.47;2384787;28;45332;-86
2022/10/04 06:25:54;;;;;;;;;31.75;27.00;;;;;10.94;72.12;102004.13;2382782;28;47262;-86
2022/10/04 06:27:16;;;;;;;;;33.50;30.00;;;;;10.98;72.15;102003.22;2386429;28;44792;-86
2022/10/04 06:28:35;;;;;;;;;33.75;28.75;;;;;11.02;72.08;102004.91;2392378;28;45412;-85
2022/10/04 06:29:54;;;;;;;;;32.50;26.00;;;;;11.07;72.22;102001.31;2391581;28;45732;-86
2022/10/04 06:31:34;;;;;;;;;38.25;31.00;;;;;11.10;72.10;102006.56;2383991;28;46709;-86
2022/10/04 06:33:22;;;;;;;;;32.00;29.00;;;;;11.14;72.11;102013.50;2386671;28;45492;-86
2022/10/04 06:34:44;;;;;;;;;32.75;30.00;;;;;11.17;72.16;102016.09;2383614;28;46492;-86
2022/10/04 06:36:30;;;;;;;;;32.25;23.25;;;;;11.20;72.05;102018.69;2383828;28;45257;-86
2022/10/04 06:37:52;;;;;;;;;37.00;31.00;;;;;11.24;72.21;102024.75;2373489;28;46686;-87
2022/10/04 06:39:31;;;;;;;;;41.75;33.00;;;;;11.28;72.14;102015.06;2378129;28;45458;-87
2022/10/04 06:40:56;;;;;;;;;34.00;26.50;;;;;11.30;72.07;102015.91;2387855;28;45470;-86
2022/10/04 06:42:09;;;;;;;;;28.25;23.00;;;;;11.32;72.14;102015.00;2376076;28;45254;-85
2022/10/04 06:44:07;;;;;;;;;37.75;30.00;;;;;11.37;72.06;102020.19;2370376;28;48393;-86
2022/10/04 06:45:33;;;;;;;;;34.25;30.00;;;;;11.43;71.96;102033.25;2351149;29;45671;-85
2022/10/04 06:46:46;;;;;;;;;39.00;32.75;;;;;11.44;71.73;102026.22;2378206;28;45545;-86
2022/10/04 06:48:37;;;;;;;;;39.75;32.25;;;;;11.47;71.84;102036.72;2393233;28;45199;-85
2022/10/04 06:49:58;;;;;;;;;37.25;30.50;;;;;11.50;71.65;102035.78;2389164;28;46489;-86
2022/10/04 06:51:31;;;;;;;;;43.25;31.50;;;;;11.52;71.48;102042.78;2373826;28;45364;-85
2022/10/04 06:53:03;;;;;;;;;39.75;31.75;;;;;11.55;71.75;102034.84;2376178;28;47441;-86
2022/10/04 06:54:35;;;;;;;;;37.75;30.50;;;;;11.59;71.71;102038.28;2375337;28;46822;-86
2022/10/04 06:56:03;;;;;;;;;39.75;30.50;;;;;11.62;71.45;102027.69;2379355;28;45548;-86
2022/10/04 06:57:22;;;;;;;;;36.50;30.75;;;;;11.65;71.22;102025.00;2391837;28;45371;-87
2022/10/04 06:58:52;;;;;;;;;40.75;29.50;;;;;11.66;71.31;102025.84;2392515;28;46846;-86
2022/10/04 07:00:15;;;;;;;;;32.75;30.25;;;;;11.66;71.46;102029.38;2390725;28;45531;-85
2022/10/04 07:01:30;;;;;;;;;35.25;30.25;;;;;11.70;71.44;102033.69;2387713;28;45480;-86
2022/10/04 07:03:03;;;;;;;;;36.25;31.75;;;;;11.74;71.32;102028.38;2383723;28;44844;-86
2022/10/04 07:04:45;;;;;;;;;33.25;29.00;;;;;11.78;71.24;102030.91;2383596;28;46853;-86
2022/10/04 07:06:03;;;;;;;;;42.25;33.00;;;;;11.83;71.37;102033.47;2390856;28;45445;-85
2022/10/04 07:07:25;;;;;;;;;44.75;33.00;;;;;11.86;71.25;102027.28;2383580;28;46093;-85
2022/10/04 07:08:47;;;;;;;;;45.75;34.75;;;;;11.87;71.05;102032.53;2386399;28;45205;-85
2022/10/04 07:10:29;;;;;;;;;42.00;34.75;;;;;11.86;70.85;102029.91;2387005;28;45261;-85
2022/10/04 07:11:48;;;;;;;;;44.25;33.25;;;;;11.86;71.01;102028.16;2372492;28;45331;-84
2022/10/04 07:13:11;;;;;;;;;39.50;33.00;;;;;11.90;71.07;102031.63;2368032;28;47448;-87
2022/10/04 07:14:36;;;;;;;;;45.25;33.50;;;;;11.91;70.83;102034.22;2383082;28;44739;-83
2022/10/04 07:15:58;;;;;;;;;39.50;33.00;;;;;11.94;71.12;102028.03;2387512;28;45837;-85
2022/10/04 07:17:14;;;;;;;;;38.75;31.25;;;;;11.97;71.12;102027.09;2377198;28;44659;-87
2022/10/04 07:18:41;;;;;;;;;43.25;32.75;;;;;11.99;71.13;102028.81;2376279;28;48035;-86
2022/10/04 07:19:53;;;;;;;;;47.00;36.25;;;;;12.03;71.10;102022.59;2378050;28;45343;-85
2022/10/04 07:21:10;;;;;;;;;40.00;31.50;;;;;12.07;70.86;102031.31;2381816;28;46599;-85
2022/10/04 07:22:34;;;;;;;;;43.00;33.50;;;;;12.10;70.82;102025.97;2390945;28;44880;-85
2022/10/04 07:23:55;;;;;;;;;45.00;33.00;;;;;12.13;70.88;102036.50;2382113;28;48116;-84
2022/10/04 07:25:26;;;;;;;;;39.25;33.00;;;;;12.17;70.66;102031.16;2368767;28;45364;-85
2022/10/04 07:26:49;;;;;;;;;42.25;35.25;;;;;12.20;70.38;102036.41;2381557;28;45547;-87
2022/10/04 07:29:51;;;;;;;;;32.00;30.00;;;;;12.25;70.57;102034.50;2387850;28;45572;-84
2022/10/04 07:31:05;;;;;;;;;43.00;36.75;;;;;12.29;70.58;102035.34;2390353;28;45328;-84
2022/10/04 07:32:23;;;;;;;;;44.50;34.50;;;;;12.33;70.57;102037.88;2382388;28;47346;-85
2022/10/04 07:33:43;;;;;;;;;43.50;35.50;;;;;12.36;70.63;102037.81;2384918;28;45419;-85
2022/10/04 07:34:59;;;;;;;;;44.00;35.50;;;;;12.39;70.64;102042.19;2391985;28;46528;-84
2022/10/04 07:36:14;;;;;;;;;45.00;36.75;;;;;12.43;70.30;102037.69;2384665;28;45451;-85
2022/10/04 07:37:28;;;;;;;;;48.25;35.75;;;;;12.46;70.00;102037.63;2385849;28;45427;-85
2022/10/04 07:38:58;;;;;;;;;46.50;35.25;;;;;12.48;69.76;102041.09;2393609;28;45344;-83
2022/10/04 07:40:25;;;;;;;;;38.25;32.50;;;;;12.49;70.33;102035.78;2380375;28;48076;-84
2022/10/04 07:41:47;;;;;;;;;44.25;33.50;;;;;12.54;70.37;102040.13;2384725;28;45285;-84
2022/10/04 07:43:19;;;;;;;;;45.00;34.75;;;;;12.55;70.52;102048.00;2386373;28;45398;-84
2022/10/04 07:44:40;;;;;;;;;44.75;36.00;;;;;12.58;70.10;102047.06;2385852;28;45475;-85
2022/10/04 07:46:02;;;;;;;;;43.00;35.00;;;;;12.60;70.39;102045.25;2386578;28;46986;-85
2022/10/04 07:47:19;;;;;;;;;46.75;38.00;;;;;12.62;70.20;102055.81;2383272;28;45501;-84
2022/10/04 07:48:29;;;;;;;;;52.00;38.25;;;;;12.64;69.82;102051.34;2377167;28;47558;-85
2022/10/04 07:49:40;;;;;;;;;48.50;37.75;;;;;12.67;69.86;102052.16;2384192;28;45568;-85
2022/10/04 07:51:26;;;;;;;;;55.50;41.25;;;;;12.71;70.09;102052.97;2388468;28;45746;-87
2022/10/04 07:52:49;;;;;;;;;47.00;36.75;;;;;12.72;70.16;102041.50;2389648;28;45271;-84
2022/10/04 07:54:21;;;;;;;;;45.25;37.00;;;;;12.75;70.06;102045.84;2392309;28;46078;-84
2022/10/04 07:55:40;;;;;;;;;44.75;35.00;;;;;12.78;69.82;102051.94;2385477;28;45341;-84
2022/10/04 07:57:00;;;;;;;;;51.50;40.75;;;;;12.79;69.98;102034.34;2393462;28;46324;-84
2022/10/04 07:58:42;;;;;;;;;54.50;40.50;;;;;12.82;70.03;102036.88;2391402;28;45477;-84
2022/10/04 08:00:12;;;;;;;;;49.00;39.75;;;;;12.84;69.96;102029.81;2390371;28;46519;-84
2022/10/04 08:01:36;;;;;;;;;47.75;37.50;;;;;12.86;69.96;102028.03;2392506;28;45366;-84
2022/10/04 08:03:20;;;;;;;;;61.50;45.50;;;;;12.88;69.42;102030.63;2387124;28;46749;-83
2022/10/04 08:04:47;;;;;;;;;54.25;42.00;;;;;12.86;69.40;102035.94;2385055;28;44867;-84
2022/10/04 08:06:11;;;;;;;;;46.00;36.75;;;;;12.86;69.80;102040.34;2385367;28;45698;-84
2022/10/04 08:07:49;;;;;;;;;57.00;42.25;;;;;12.90;69.50;102028.81;2381222;28;44701;-89
2022/10/04 08:09:25;;;;;;;;;49.25;37.75;;;;;12.94;69.69;102025.19;2389498;28;47298;-84
2022/10/04 08:10:49;;;;;;;;;50.00;38.25;;;;;12.97;69.49;102019.84;2392326;28;44683;-84
2022/10/04 08:12:16;;;;;;;;;51.75;43.50;;;;;12.99;69.52;102020.69;2393082;28;45505;-84
2022/10/04 08:13:58;;;;;;;;;51.00;43.25;;;;;13.02;69.73;102010.06;2387066;28;46776;-86
2022/10/04 08:15:35;;;;;;;;;57.75;44.00;;;;;13.06;69.64;102018.78;2387000;28;46634;-85
2022/10/04 08:17:01;;;;;;;;;49.50;39.50;;;;;13.08;69.67;102024.03;2388548;28;45255;-85
2022/10/04 08:18:14;;;;;;;;;43.75;38.25;;;;;13.12;69.45;102025.69;2384685;28;45521;-86
2022/10/04 08:19:47;;;;;;;;;45.25;37.25;;;;;13.15;68.79;102022.97;2391606;28;44891;-85
2022/10/04 08:21:04;;;;;;;;;43.50;38.00;;;;;13.16;68.87;102022.09;2393473;28;45594;-86
2022/10/04 08:22:32;;;;;;;;;46.00;37.50;;;;;13.18;69.18;102019.41;2380645;28;44779;-84
2022/10/04 08:23:48;;;;;;;;;51.75;41.00;;;;;13.20;69.30;102023.75;2381506;28;47112;-86
2022/10/04 08:25:21;;;;;;;;;53.00;40.50;;;;;13.22;69.00;102016.66;2383504;28;45408;-85
2022/10/04 08:27:08;;;;;;;;;50.75;39.25;;;;;13.26;69.31;102017.47;2389735;28;46717;-86
2022/10/04 08:30:14;;;;;;;;;55.50;40.75;;;;;13.32;68.91;102017.31;2391447;28;45688;-86
2022/10/04 08:32:05;;;;;;;;;55.00;41.25;;;;;13.34;69.14;102023.41;2393976;28;45356;-85
2022/10/04 08:33:28;;;;;;;;;55.00;42.25;;;;;13.37;68.86;102020.69;2389613;28;46739;-85
2022/10/04 08:35:18;;;;;;;;;55.25;41.00;;;;;13.42;68.88;102027.63;2386487;28;44845;-85
2022/10/04 08:36:56;;;;;;;;;53.25;41.00;;;;;13.45;69.19;102030.22;2383141;28;46831;-85
2022/10/04 08:38:06;;;;;;;;;50.25;38.00;;;;;13.48;68.98;102032.78;2395927;28;45484;-87
2022/10/04 08:39:26;;;;;;;;;52.50;40.25;;;;;13.50;68.80;102031.84;2388302;28;47337;-86
2022/10/04 08:40:48;;;;;;;;;50.25;41.25;;;;;13.55;69.09;102033.50;2387367;28;45289;-86
2022/10/04 08:42:08;;;;;;;;;43.50;37.50;;;;;13.56;68.69;102030.84;2383558;28;47083;-87
2022/10/04 08:43:48;;;;;;;;;46.50;39.25;;;;;13.61;68.27;102039.50;2384580;28;45289;-85
2022/10/04 08:45:45;;;;;;;;;53.50;38.75;;;;;13.62;68.35;102043.03;2389602;28;46192;-86
2022/10/04 08:47:33;;;;;;;;;50.50;39.25;;;;;13.66;68.73;102047.31;2388270;28;45319;-86
2022/10/04 08:48:52;;;;;;;;;57.50;43.00;;;;;13.69;68.53;102051.66;2386559;28;47310;-85
2022/10/04 08:50:24;;;;;;;;;44.00;37.50;;;;;13.72;68.60;102051.59;2388978;28;44894;-85
2022/10/04 08:51:53;;;;;;;;;52.50;43.50;;;;;13.73;68.53;102048.91;2393258;28;46317;-86
2022/10/04 08:53:25;;;;;;;;;45.75;38.00;;;;;13.78;68.67;102056.72;2387915;28;46842;-86
2022/10/04 08:54:55;;;;;;;;;48.00;39.25;;;;;13.83;68.78;102049.53;2389968;28;46281;-86
2022/10/04 08:56:44;;;;;;;;;50.25;41.75;;;;;13.89;68.65;102052.94;2392686;28;44683;-86
2022/10/04 08:58:17;;;;;;;;;51.75;40.25;;;;;13.94;68.78;102048.41;2387523;28;47487;-86
2022/10/04 09:00:02;;;;;;;;;50.75;38.00;;;;;13.98;68.40;102052.69;2391109;28;45926;-85
2022/10/04 09:01:47;;;;;;;;;49.75;37.25;;;;;14.02;67.94;102054.34;2388296;28;45683;-85
2022/10/04 09:03:12;;;;;;;;;43.00;36.25;;;;;14.04;67.96;102056.94;2380266;28;45429;-85
2022/10/04 09:05:03;;;;;;;;;50.00;38.25;;;;;14.05;67.83;102062.19;2386905;28;47550;-86
2022/10/04 09:06:39;;;;;;;;;50.25;41.75;;;;;14.09;67.91;102056.81;2387195;28;45313;-86
2022/10/04 09:08:08;;;;;;;;;46.25;39.50;;;;;14.11;68.10;102061.16;2387441;28;47368;-85
2022/10/04 09:09:34;;;;;;;;;50.00;38.25;;;;;14.16;67.96;102061.03;2385802;28;45539;-87
2022/10/04 09:11:09;;;;;;;;;43.75;35.75;;;;;14.18;68.18;102064.50;2372224;28;47386;-87
2022/10/04 09:12:49;;;;;;;;;42.25;37.00;;;;;14.22;67.96;102067.94;2382692;28;45292;-87
2022/10/04 09:14:33;;;;;;;;;50.25;41.00;;;;;14.26;68.40;102073.09;2359766;28;47451;-87
2022/10/04 09:16:12;;;;;;;;;52.25;41.50;;;;;14.28;68.00;102067.75;2386362;28;45839;-91
2022/10/04 09:17:45;;;;;;;;;47.75;38.00;;;;;14.30;67.67;102065.94;2385946;28;46808;-87
2022/10/04 09:19:26;;;;;;;;;40.25;36.75;;;;;14.33;67.68;102065.88;2387847;28;45471;-89
2022/10/04 09:21:02;;;;;;;;;46.00;38.50;;;;;14.36;67.72;102067.56;2391679;28;45548;-86
2022/10/04 09:22:50;;;;;;;;;52.50;39.25;;;;;14.34;67.80;102062.31;2388964;28;45313;-83
2022/10/04 09:24:44;;;;;;;;;52.00;40.25;;;;;14.38;67.67;102063.97;2381731;28;47607;-86
2022/10/04 09:26:11;;;;;;;;;52.25;41.25;;;;;14.40;67.84;102066.56;2373167;28;45255;-86
2022/10/04 09:27:59;;;;;;;;;47.50;39.75;;;;;14.44;67.83;102072.63;2374198;28;47320;-86
2022/10/04 09:29:25;;;;;;;;;54.50;43.00;;;;;14.46;67.76;102070.81;2386750;28;45289;-84
2022/10/04 09:30:40;;;;;;;;;47.50;38.75;;;;;14.48;67.91;102074.28;2383418;28;47206;-85
2022/10/04 09:32:29;;;;;;;;;44.25;37.00;;;;;14.51;67.41;102066.25;2389846;28;45500;-85
2022/10/04 09:33:42;;;;;;;;;48.25;39.25;;;;;14.52;67.61;102073.28;2376202;28;45234;-86
2022/10/04 09:35:09;;;;;;;;;50.50;38.50;;;;;14.54;67.62;102075.91;2380901;28;44862;-86
2022/10/04 09:36:41;;;;;;;;;48.00;37.00;;;;;14.56;67.37;102074.94;2384769;28;46852;-86
2022/10/04 09:38:19;;;;;;;;;43.50;35.75;;;;;14.58;67.50;102069.59;2389270;28;45333;-85
2022/10/04 09:39:41;;;;;;;;;45.00;38.25;;;;;14.59;67.52;102066.88;2390664;28;48561;-85
2022/10/04 09:41:26;;;;;;;;;51.25;38.75;;;;;14.58;67.30;102065.19;2386145;28;45202;-84
2022/10/04 09:43:27;;;;;;;;;51.00;40.00;;;;;14.59;67.62;102058.97;2382158;28;47515;-86
2022/10/04 09:45:16;;;;;;;;;51.00;38.00;;;;;14.58;67.60;102051.94;2358495;28;44713;-85
2022/10/04 09:46:45;;;;;;;;;43.25;37.25;;;;;14.56;67.53;102040.53;2386117;28;47211;-86
2022/10/04 09:48:15;;;;;;;;;51.00;38.75;;;;;14.58;67.31;102040.50;2387010;28;45396;-87
2022/10/04 09:49:35;;;;;;;;;46.50;38.25;;;;;14.57;67.36;102031.69;2391529;28;45721;-86
2022/10/04 09:51:17;;;;;;;;;44.50;36.25;;;;;14.56;67.22;102029.97;2385809;28;45218;-87
2022/10/04 09:52:38;;;;;;;;;46.75;37.00;;;;;14.55;67.57;102025.56;2393878;28;47649;-88
2022/10/04 09:54:14;;;;;;;;;43.25;34.50;;;;;14.55;67.50;102030.88;2380725;28;45396;-85
2022/10/04 09:55:42;;;;;;;;;49.75;39.50;;;;;14.54;67.50;102039.72;2383206;28;46332;-86
2022/10/04 09:57:09;;;;;;;;;46.75;37.75;;;;;14.53;67.60;102035.34;2375855;28;44740;-87
2022/10/04 09:58:50;;;;;;;;;49.50;37.00;;;;;14.54;67.71;102044.16;2383468;28;46189;-87
2022/10/04 10:00:09;;;;;;;;;44.50;35.50;;;;;14.55;67.71;102046.75;2388155;28;45493;-86
2022/10/04 10:01:27;;;;;;;;;44.25;35.25;;;;;14.58;67.58;102045.78;2373823;28;47368;-86
2022/10/04 10:03:03;;;;;;;;;43.50;34.00;;;;;14.59;67.60;102047.53;2382875;28;45284;-87
2022/10/04 10:04:27;;;;;;;;;45.75;35.75;;;;;14.62;67.33;102042.13;2389092;28;46049;-88
2022/10/04 10:05:43;;;;;;;;;44.00;36.50;;;;;14.62;67.43;102043.00;2373755;28;45216;-89
2022/10/04 10:07:08;;;;;;;;;38.25;34.25;;;;;14.65;67.56;102043.81;2381070;28;46428;-87
2022/10/04 10:08:33;;;;;;;;;47.50;38.00;;;;;14.67;67.47;102040.22;2394327;28;45396;-88
2022/10/04 10:13:39;;;;;;;;;40.50;34.00;;;;;14.80;67.24;102032.78;2392594;28;45366;-88
2022/10/04 10:15:10;;;;;;;;;42.75;35.25;;;;;14.82;66.98;102036.25;2389221;28;45279;-88
2022/10/04 10:16:37;;;;;;;;;44.75;34.25;;;;;14.81;67.11;102034.53;2383920;28;46488;-88
2022/10/04 10:17:50;;;;;;;;;42.25;34.75;;;;;14.83;67.31;102040.63;2385104;28;45151;-87
2022/10/04 10:19:15;;;;;;;;;39.25;33.75;;;;;14.84;67.07;102030.94;2381712;28;47095;-87
2022/10/04 10:20:59;;;;;;;;;44.25;33.75;;;;;14.84;67.04;102036.22;2387167;28;45345;-88
2022/10/04 10:22:43;;;;;;;;;45.25;35.50;;;;;14.82;67.17;102033.59;2355735;29;45476;-88
2022/10/04 10:23:56;;;;;;;;;41.75;34.00;;;;;14.81;67.12;102029.25;2389149;28;44780;-87
2022/10/04 10:25:12;;;;;;;;;52.00;38.50;;;;;14.80;67.33;102024.84;2382087;28;47620;-87
2022/10/04 10:26:32;;;;;;;;;45.25;34.75;;;;;14.78;67.01;102021.38;2385722;28;45570;-88
2022/10/04 10:28:04;;;;;;;;;47.50;36.50;;;;;14.81;67.36;102025.72;2391845;28;48110;-87
2022/10/04 10:29:58;;;;;;;;;46.00;37.75;;;;;14.80;67.20;102024.84;2396097;28;44730;-87
2022/10/04 10:31:55;;;;;;;;;45.25;36.25;;;;;14.80;66.88;102013.38;2364151;29;45537;-88
2022/10/04 10:33:18;;;;;;;;;39.75;31.50;;;;;14.78;67.15;102021.38;2364018;28;45443;-89
2022/10/04 10:34:52;;;;;;;;;44.75;35.75;;;;;14.74;67.02;102015.31;2385100;28;45450;-89
2022/10/04 10:36:27;;;;;;;;;44.50;33.25;;;;;14.70;67.23;102013.66;2392477;28;45437;-89
2022/10/04 10:38:01;;;;;;;;;43.75;35.50;;;;;14.69;67.47;102008.44;2382864;28;47044;-89
2022/10/04 10:39:49;;;;;;;;;45.75;37.75;;;;;14.69;67.36;102013.72;2382549;28;45452;-89
2022/10/04 10:41:11;;;;;;;;;39.50;33.25;;;;;14.67;67.67;102008.47;2391250;28;46108;-89
2022/10/04 10:42:49;;;;;;;;;41.75;35.75;;;;;14.68;67.81;102009.34;2384977;28;45476;-88
2022/10/04 10:44:28;;;;;;;;;39.75;32.00;;;;;14.67;67.89;102004.97;2376868;28;47408;-87
2022/10/04 10:45:44;;;;;;;;;43.75;35.50;;;;;14.67;67.80;102002.31;2384612;28;44785;-88
2022/10/04 10:47:14;;;;;;;;;38.75;34.75;;;;;14.66;67.78;101996.16;2387026;28;46507;-89
2022/10/04 10:48:51;;;;;;;;;47.75;36.25;;;;;14.67;68.03;101997.03;2375944;28;45449;-87
2022/10/04 10:50:02;;;;;;;;;46.00;36.50;;;;;14.67;67.82;101997.03;2384368;28;45732;-88
2022/10/04 10:51:34;;;;;;;;;40.25;35.00;;;;;14.66;68.39;101993.53;2379106;28;45519;-88
2022/10/04 10:52:44;;;;;;;;;41.25;35.50;;;;;14.67;68.10;101991.75;2384257;28;48285;-87
2022/10/04 10:54:18;;;;;;;;;38.00;32.25;;;;;14.68;68.49;101993.47;2388533;28;45254;-90
2022/10/04 10:56:03;;;;;;;;;40.25;34.50;;;;;14.69;68.20;101997.84;2386257;28;46444;-87
2022/10/04 10:57:48;;;;;;;;;38.25;34.75;;;;;14.71;68.68;101988.94;2390540;28;45313;-88
2022/10/04 10:59:23;;;;;;;;;38.25;32.75;;;;;14.75;68.82;101992.34;2384732;28;46265;-87
2022/10/04 11:00:51;;;;;;;;;40.75;34.25;;;;;14.80;68.51;101997.50;2386159;28;45497;-87
2022/10/04 11:02:20;;;;;;;;;36.00;31.25;;;;;14.82;68.68;101988.59;2387725;28;47289;-87
2022/10/04 11:04:08;;;;;;;;;38.50;30.75;;;;;14.85;68.18;101987.66;2387467;28;44852;-86
2022/10/04 11:05:24;;;;;;;;;35.00;33.50;;;;;14.89;68.60;101985.81;2375874;28;48624;-87
2022/10/04 11:06:54;;;;;;;;;40.25;34.50;;;;;14.93;68.46;101983.03;2382138;28;45416;-87
2022/10/04 11:08:35;;;;;;;;;40.00;32.50;;;;;14.97;68.70;101989.06;2389078;28;45575;-86
2022/10/04 11:09:59;;;;;;;;;43.25;32.75;;;;;15.02;68.53;101986.28;2383317;28;45436;-86
2022/10/04 11:11:47;;;;;;;;;32.00;30.75;;;;;15.08;68.59;101983.44;2378616;28;48370;-86
2022/10/04 11:13:10;;;;;;;;;37.50;33.25;;;;;15.13;68.55;101989.47;2385021;28;45546;-86
2022/10/04 11:14:49;;;;;;;;;37.00;32.75;;;;;15.17;68.08;101983.13;2383256;28;47230;-86
2022/10/04 11:16:27;;;;;;;;;22.00;20.75;;;;;15.22;68.26;101983.00;2377300;28;45360;-84
2022/10/04 11:17:55;;;;;;;;;46.50;33.25;;;;;15.24;67.96;101975.84;2384730;28;45488;-87
2022/10/04 11:19:33;;;;;;;;;49.75;39.75;;;;;15.27;68.07;101983.72;2382497;28;44903;-87
2022/10/04 11:21:13;;;;;;;;;50.00;38.25;;;;;15.31;68.26;101987.09;2387707;28;48782;-88
2022/10/04 11:22:35;;;;;;;;;32.00;26.75;;;;;15.34;67.98;101984.34;2377206;28;44771;-87
2022/10/04 11:24:17;;;;;;;;;36.75;32.50;;;;;15.40;68.21;101991.25;2382778;28;46634;-85
2022/10/04 11:25:43;;;;;;;;;37.75;31.75;;;;;15.44;68.12;101990.22;2386003;28;45429;-85
2022/10/04 11:27:23;;;;;;;;;36.75;29.50;;;;;15.49;67.95;101990.06;2391320;28;45932;-85
2022/10/04 11:29:15;;;;;;;;;28.25;25.50;;;;;15.53;68.14;101997.84;2391039;28;44659;-84
2022/10/04 11:30:39;;;;;;;;;31.75;30.00;;;;;15.59;68.44;101990.63;2368393;28;45347;-84
2022/10/04 11:32:19;;;;;;;;;27.75;26.50;;;;;15.65;68.12;101998.38;2382918;28;44806;-83
2022/10/04 11:33:54;;;;;;;;;38.75;28.75;;;;;15.70;68.08;101993.78;2382248;28;45362;-85
2022/10/04 11:35:23;;;;;;;;;29.50;25.50;;;;;15.77;68.26;101990.91;2385095;28;45400;-84
2022/10/04 11:37:03;;;;;;;;;30.50;22.50;;;;;15.82;68.13;101986.31;2389138;28;46668;-85
2022/10/04 11:38:51;;;;;;;;;27.75;25.75;;;;;15.85;68.16;101976.44;2384171;28;44699;-84
2022/10/04 11:40:34;;;;;;;;;26.25;23.00;;;;;15.90;67.90;101981.56;2386766;28;46301;-81
2022/10/04 11:42:18;;;;;;;;;25.25;24.75;;;;;15.94;68.22;101985.88;2388356;28;45724;-84
2022/10/04 11:44:13;;;;;;;;;23.75;20.75;;;;;16.00;68.65;101987.41;2386788;28;46292;-84
2022/10/04 11:45:32;;;;;;;;;29.25;22.50;;;;;16.06;67.99;101992.53;2381690;28;45281;-84
2022/10/04 11:47:02;;;;;;;;;25.00;22.00;;;;;16.10;67.82;101990.63;2385109;28;45487;-83
2022/10/04 11:48:47;;;;;;;;;25.00;20.50;;;;;16.16;67.67;101998.38;2393686;28;44958;-84
2022/10/04 11:50:19;;;;;;;;;20.50;19.25;;;;;16.20;68.17;101997.34;2393834;28;46198;-84
2022/10/04 11:52:35;;;;;;;;;24.25;20.50;;;;;16.26;67.72;101996.25;2392642;28;45219;-83
2022/10/04 11:53:54;;;;;;;;;21.75;20.00;;;;;16.31;67.88;101994.28;2356599;29;45538;-83
2022/10/04 11:55:56;;;;;;;;;26.75;22.75;;;;;16.37;67.53;101995.84;2346390;29;45509;-84
2022/10/04 11:57:15;;;;;;;;;24.00;22.50;;;;;16.40;67.79;101995.72;2338083;29;47212;-84
2022/10/04 11:58:47;;;;;;;;;21.25;18.25;;;;;16.46;67.59;102001.72;2343182;29;45281;-84
2022/10/04 12:00:17;;;;;;;;;22.25;18.25;;;;;16.49;67.55;101991.88;2386823;28;45600;-83
2022/10/04 12:02:01;;;;;;;;;26.75;23.50;;;;;16.53;67.79;101982.00;2386486;28;45554;-84
2022/10/04 12:03:14;;;;;;;;;30.00;23.50;;;;;16.58;67.43;101977.38;2387622;28;45481;-83
2022/10/04 12:04:51;;;;;;;;;25.00;20.50;;;;;16.63;67.27;101979.84;2385183;28;45231;-83
2022/10/04 12:06:14;;;;;;;;;20.75;17.75;;;;;16.65;67.01;101972.69;2382840;28;47085;-84
2022/10/04 12:07:41;;;;;;;;;24.00;20.50;;;;;16.69;66.88;101979.59;2387808;28;45522;-84
2022/10/04 12:09:10;;;;;;;;;18.50;18.00;;;;;16.74;66.50;101974.13;2385326;28;45312;-83
2022/10/04 12:10:26;;;;;;;;;25.00;19.00;;;;;16.79;66.78;101977.44;2382873;28;45284;-84
2022/10/04 12:13:28;;;;;;;;;24.50;19.50;;;;;16.87;66.59;101971.81;2384686;28;45288;-81
2022/10/04 12:15:07;;;;;;;;;19.50;17.50;;;;;16.90;66.73;101971.72;2388759;28;45621;-83
2022/10/04 12:16:32;;;;;;;;;20.50;19.00;;;;;16.95;65.67;101976.84;2391206;28;44732;-84
2022/10/04 12:17:58;;;;;;;;;23.75;18.75;;;;;16.97;66.02;101980.28;2384274;28;46279;-84
2022/10/04 12:19:33;;;;;;;;;17.50;17.00;;;;;17.00;65.61;101974.88;2384036;28;45283;-84
2022/10/04 12:20:52;;;;;;;;;26.75;23.50;;;;;17.02;65.24;101977.44;2383580;28;47044;-84
2022/10/04 12:22:12;;;;;;;;;18.25;17.00;;;;;17.04;65.54;101987.09;2388636;28;45269;-86
2022/10/04 12:23:41;;;;;;;;;18.50;17.75;;;;;17.07;65.71;101981.66;2390400;28;45527;-85
2022/10/04 12:25:31;;;;;;;;;24.75;18.00;;;;;17.09;65.86;101979.78;2390235;28;45508;-84
2022/10/04 12:27:09;;;;;;;;;29.00;23.00;;;;;17.14;65.32;101981.38;2390983;28;47418;-85
2022/10/04 12:28:42;;;;;;;;;20.25;17.50;;;;;17.16;65.58;101979.59;2386214;28;45205;-83
2022/10/04 12:30:21;;;;;;;;;22.00;20.50;;;;;17.18;64.81;101980.38;2392017;28;47530;-85
2022/10/04 12:31:40;;;;;;;;;22.00;18.00;;;;;17.17;65.63;101976.84;2386688;28;44750;-84
2022/10/04 12:32:56;;;;;;;;;19.75;18.25;;;;;17.19;65.22;101969.69;2378822;28;47361;-84
2022/10/04 12:34:15;;;;;;;;;19.00;16.75;;;;;17.23;64.89;101969.56;2385169;28;46033;-84
2022/10/04 12:35:46;;;;;;;;;21.00;18.00;;;;;17.23;65.59;101978.41;2391082;28;46226;-85
2022/10/04 12:37:28;;;;;;;;;14.75;11.50;;;;;17.27;65.04;101972.03;2385055;28;44838;-84
2022/10/04 12:38:47;;;;;;;;;11.00;9.75;;;;;17.30;64.65;101965.72;2392664;28;48002;-84